Terminal Aerodrome Forecast
Issued by NWS Wilmington, OH

Home | Current Version | Previous Version | Text Only | Print | Product List | Glossary On
Versions: 1 2 3 4 5 6 7 8 9 10 11 12 13 14 15 16 17 18 19 20 21 22 23
000
FTUS41 KILN 221522 AAB
TAFILN
TAF AMD
KILN 221522Z 2215/2312 05012G20KT 1 1/2SM -DZ BR OVC010
     FM221700 05012G20KT P6SM OVC011
     FM222100 07008KT P6SM OVC011
     FM230300 08005KT P6SM OVC008
     FM230800 10007KT 4SM -SHRA BR OVC006=

USA.gov is the U.S. government's official web portal to all federal, state and local government web resources and services.